Карточка аэропорта UMKK

Внимание!
Информация на этой странице в стадии наполнения.
Если вы не увидели какой-то информации, или заметили неточность - пожалуйста сообщите нам!
Спасибо!
Команда RU-STAFF
Название аэропортаХраброво
Название аэропорта (англ.)Khrabrovo
Превышение43 ft. (13.1 m.)
Координаты54°53.4', 20°35.55'
Высота перехода4000ft
Эшелон переходаFL50 (QNH>=1013hPa); FL60 (QNH<1013hPa); FL50 (QNH<977hPa);
Коды ответчика6620-6637
Зона ОрВДКалининград РПИ (UMKK)
Данные METARUMKK 071830Z 22005MPS 9000 -SHSNRA SCT006 BKN017CB 01/01 Q0999 RESHRA RESHSN R24/690293 NOSIG RMK QBB180 OBST OBSC QFE748/0997
Проноз погоды (TAF)UMKK 071716Z 0717/0818 24007G12MPS 2000 SHSNRA BKN005 BKN016CB TEMPO 0718/0809 29010G17MPS 0500 +SHSN BKN003 BKN014CB BECMG 0812/0813 6000 NSW BKN008 BECMG 0813/0815 18005G10MPS TEMPO 0815/0818 0500 +SHSN BKN002 BKN013CB
NOTAMshow/hide NOTAM
AWOS   TABLE

Информация о ВПП

ВПП Длина ВПП (м.) Покрытие Курс ВПП Частота ILS
063350Асфальтобетон60110.3
243350Асфальтобетон240109.5

Диспетчерские позиции

Позывной Наименование органа УВД Частота
UMKK_APPКалининград-Подход126.0
UMKK_TWRКалининград-Вышка127.2



Спутниковое изображение